RJOK(METAR)
05/24 14:00
METAR RJOK 240500Z 13007KT 9999 FEW035 25/15 Q1012 RMK 1CU035 A2990=
戻る
トップページへ戻る
IMOC Co,.Ltd.